This is the latest recevied weather packets stored in our database for station/object WC0AA. If no packets are shown the sender has not sent any weather packets the latest 10 day(s).
| Time | Temp. | Humidity | Pressure | Rain* | Wind** | Luminosity | Snow |
|---|---|---|---|---|---|---|---|
| 1777996804 | 11.11° C | 73% | 1013.2 hPa | 0 mm | - | - | - |
| 1777992604 | 9.44° C | 81% | 1013.1 hPa | 0 mm | - | - | - |
| 1777991405 | 8.89° C | 84% | 1012.8 hPa | 0 mm | - | - | - |
| 1777983004 | 8.89° C | 77% | 1012 hPa | 0 mm | - | - | - |
| 1777980604 | 9.44° C | 65% | 1010.1 hPa | 0 mm | - | - | - |
| 1777978804 | 9.44° C | 65% | 1009.8 hPa | 0 mm | - | - | - |
| 1777969804 | 11.67° C | 51% | 1009.9 hPa | 0 mm | - | - | - |
| 1777966204 | 12.22° C | 48% | 1009.8 hPa | 0 mm | - | - | - |
| 1777965005 | 12.22° C | 47% | 1009.5 hPa | 0 mm | - | - | - |
| 1777964404 | 12.78° C | 45% | 1009.4 hPa | 0 mm | - | - | - |
| 1777957204 | 14.44° C | 45% | 1007.4 hPa | 0 mm | - | - | - |
| 1777954804 | 15.56° C | 42% | 1007.3 hPa | 0 mm | - | - | - |
| 1777954204 | 16.11° C | 41% | 1007.3 hPa | 0 mm | - | - | - |
| 1777953604 | 16.67° C | 41% | 1007.1 hPa | 0 mm | - | - | - |
| 1777950605 | 18.33° C | 39% | 1006.1 hPa | 0 mm | - | - | - |
| 1777944604 | 22.22° C | 35% | 1003.2 hPa | 0 mm | - | - | - |
| 1777932004 | 31.11° C | 22% | 1001.3 hPa | 0 mm | - | - | - |
| 1777928404 | 31.11° C | 21% | 1001.9 hPa | 0 mm | - | - | - |
| 1777923604 | 32.22° C | 20% | 1002.4 hPa | 0 mm | - | - | - |
| 1777922403 | 32.22° C | 22% | 1002.5 hPa | 0 mm | - | - | - |
| 1777921804 | 32.22° C | 23% | 1002.5 hPa | 0 mm | - | - | - |
| 1777920604 | 31.67° C | 23% | 1002.5 hPa | 0 mm | - | - | - |
| 1777919405 | 32.22° C | 22% | 1002.3 hPa | 0 mm | - | - | - |
| 1777909204 | 26.11° C | 39% | 1003 hPa | 0 mm | - | - | - |
| 1777907404 | 23.33° C | 46% | 1003 hPa | 0 mm | - | - | - |
* Rain latest hour (hover to see other rain measurements)
** Current wind speed in m/s (hover to see current wind gust speed)